Time;durP1;ratioP1;P1;durP2;ratioP2;P2;SDS_P1;SDS_P2;PMS_P1;PMS_P2;Temp;Humidity;BMP_temperature;BMP_pressure;BME280_temperature;BME280_humidity;BME280_pressure;Samples;Min_cycle;Max_cycle;Signal;HPM_P1;HPM_P2
2023/08/23 00:02:25;;;;;;;17.10;8.77;;;17.20;99.90;;;;;;5101430;28;20028;-67
2023/08/23 00:04:52;;;;;;;16.83;8.95;;;17.10;99.90;;;;;;5103397;28;20409;-68
2023/08/23 00:07:18;;;;;;;21.88;8.43;;;17.10;99.90;;;;;;5103675;28;20088;-67
2023/08/23 00:09:43;;;;;;;19.05;10.15;;;17.10;99.90;;;;;;5103582;28;20040;-68
2023/08/23 00:12:09;;;;;;;18.85;9.68;;;17.10;99.90;;;;;;5101274;28;20097;-68
2023/08/23 00:14:36;;;;;;;17.90;7.95;;;17.10;99.90;;;;;;5104139;28;20016;-67
2023/08/23 00:17:02;;;;;;;16.70;8.35;;;17.10;99.90;;;;;;5101494;28;20043;-68
2023/08/23 00:19:27;;;;;;;17.95;7.78;;;17.10;99.90;;;;;;5103215;28;20055;-69
2023/08/23 00:21:53;;;;;;;16.45;7.20;;;17.10;99.90;;;;;;5092049;28;20089;-68
2023/08/23 00:24:19;;;;;;;13.70;7.25;;;17.10;99.90;;;;;;5091360;28;20093;-68
2023/08/23 00:26:45;;;;;;;16.23;8.65;;;17.20;99.90;;;;;;5091334;28;20196;-69
2023/08/23 00:29:11;;;;;;;14.18;8.15;;;17.20;99.90;;;;;;5091107;28;20028;-68
2023/08/23 00:31:36;;;;;;;19.02;9.05;;;17.20;99.90;;;;;;5109591;28;20046;-68
2023/08/23 00:34:02;;;;;;;17.98;9.27;;;17.30;99.90;;;;;;5112537;28;20063;-66
2023/08/23 00:36:28;;;;;;;15.73;8.07;;;17.20;99.90;;;;;;5112513;28;20147;-67
2023/08/23 00:38:55;;;;;;;17.65;8.48;;;17.20;99.90;;;;;;5112896;28;20031;-68
2023/08/23 00:41:24;;;;;;;14.52;8.20;;;17.20;99.90;;;;;;5112589;28;20092;-68
2023/08/23 00:43:50;;;;;;;15.40;8.10;;;17.20;99.90;;;;;;5112823;28;20024;-69
2023/08/23 00:46:17;;;;;;;14.38;8.02;;;17.20;99.90;;;;;;5112853;28;20039;-67
2023/08/23 00:48:44;;;;;;;16.90;8.38;;;17.20;99.90;;;;;;5116235;28;20019;-66
2023/08/23 00:51:12;;;;;;;19.35;9.95;;;17.20;99.90;;;;;;5116887;28;20024;-69
2023/08/23 00:53:38;;;;;;;18.90;9.40;;;17.20;99.90;;;;;;5115415;28;20036;-69
2023/08/23 00:56:04;;;;;;;14.77;9.13;;;17.20;99.90;;;;;;5115147;28;20783;-68
2023/08/23 00:58:30;;;;;;;17.08;9.05;;;17.20;99.90;;;;;;5116496;28;20124;-68
2023/08/23 01:00:57;;;;;;;14.57;8.80;;;17.20;99.90;;;;;;5116470;28;20085;-67
2023/08/23 01:03:22;;;;;;;18.27;8.52;;;17.20;99.90;;;;;;5116686;28;20024;-67
2023/08/23 01:05:57;;;;;;;15.13;8.35;;;17.20;99.90;;;;;;5116541;28;20030;-68
2023/08/23 01:08:28;;;;;;;14.65;8.30;;;17.20;99.90;;;;;;5116687;28;20053;-68
2023/08/23 01:11:36;;;;;;;18.23;9.77;;;17.20;99.90;;;;;;5116651;28;20027;-67
2023/08/23 01:14:04;;;;;;;20.35;9.68;;;17.20;99.90;;;;;;5053210;28;20040;-66
2023/08/23 01:16:32;;;;;;;19.05;9.70;;;17.20;99.90;;;;;;5053375;28;20033;-68
2023/08/23 01:19:00;;;;;;;19.75;10.10;;;17.20;99.90;;;;;;5085688;27;20044;-68
2023/08/23 01:21:32;;;;;;;20.08;10.40;;;17.10;99.90;;;;;;5115082;28;20088;-67
2023/08/23 01:24:03;;;;;;;;;;;17.10;99.90;;;;;;5116651;28;20107;-67
2023/08/23 01:26:29;;;;;;;18.55;10.10;;;17.10;99.90;;;;;;5116134;28;19903;-67
2023/08/23 01:28:54;;;;;;;17.85;10.15;;;17.10;99.90;;;;;;5116038;28;20038;-67
2023/08/23 01:31:23;;;;;;;19.42;11.13;;;17.10;99.90;;;;;;5100258;28;20044;-67
2023/08/23 01:34:00;;;;;;;21.40;11.40;;;17.10;99.90;;;;;;5095688;28;20024;-66
2023/08/23 01:36:28;;;;;;;21.05;10.98;;;17.10;99.90;;;;;;5095763;28;20024;-68
2023/08/23 01:38:55;;;;;;;19.55;10.75;;;17.10;99.90;;;;;;5095641;28;20380;-68
2023/08/23 01:41:22;;;;;;;21.80;11.18;;;17.10;99.90;;;;;;5095567;28;20085;-68
2023/08/23 01:43:47;;;;;;;22.45;11.90;;;17.10;99.90;;;;;;5095087;28;20103;-68
2023/08/23 01:46:13;;;;;;;19.63;10.73;;;17.10;99.90;;;;;;5095005;28;20104;-68
2023/08/23 01:48:39;;;;;;;21.38;12.00;;;17.10;99.90;;;;;;5095355;28;20107;-67
2023/08/23 01:51:06;;;;;;;23.88;12.50;;;17.00;99.90;;;;;;5095624;28;20076;-66
2023/08/23 01:53:32;;;;;;;22.25;12.27;;;17.00;99.90;;;;;;5095220;28;20066;-67
2023/08/23 01:55:58;;;;;;;22.73;11.80;;;17.00;99.90;;;;;;5095255;28;20076;-67
2023/08/23 01:58:25;;;;;;;24.33;12.90;;;17.00;99.90;;;;;;5094962;28;20099;-67
2023/08/23 02:00:51;;;;;;;24.58;13.80;;;17.00;99.90;;;;;;5093864;28;20028;-68
2023/08/23 02:03:18;;;;;;;25.20;13.15;;;17.00;99.90;;;;;;5095105;28;20056;-68
2023/08/23 02:05:43;;;;;;;26.00;14.07;;;17.00;99.90;;;;;;5095010;28;20024;-67
2023/08/23 02:08:09;;;;;;;24.40;14.38;;;17.00;99.90;;;;;;5094855;28;20028;-66
2023/08/23 02:10:35;;;;;;;27.00;15.13;;;17.00;99.90;;;;;;5094838;28;20054;-67
2023/08/23 02:13:04;;;;;;;25.20;14.50;;;17.00;99.90;;;;;;5093138;28;20044;-66
2023/08/23 02:15:30;;;;;;;26.05;15.77;;;17.00;99.90;;;;;;5094957;28;20031;-65
2023/08/23 02:17:55;;;;;;;26.70;17.52;;;16.90;99.90;;;;;;5094564;28;20237;-66
2023/08/23 02:20:21;;;;;;;28.90;17.52;;;17.00;99.90;;;;;;5094446;28;20020;-68
2023/08/23 02:22:46;;;;;;;31.40;19.08;;;16.90;99.90;;;;;;5094698;28;20036;-67
2023/08/23 02:25:12;;;;;;;31.83;18.70;;;16.90;99.90;;;;;;5094734;28;20028;-67
2023/08/23 02:27:38;;;;;;;31.85;19.98;;;16.90;99.90;;;;;;5094376;28;20028;-68
2023/08/23 02:30:04;;;;;;;31.80;20.60;;;17.00;99.90;;;;;;5098846;28;20024;-67
2023/08/23 02:32:29;;;;;;;31.38;20.65;;;16.90;99.90;;;;;;5114858;28;20039;-67
2023/08/23 02:34:55;;;;;;;30.40;21.08;;;16.90;99.90;;;;;;5115226;28;20027;-67
2023/08/23 02:37:20;;;;;;;32.58;20.25;;;16.90;99.90;;;;;;5114565;28;20034;-67
2023/08/23 02:39:46;;;;;;;34.13;21.15;;;16.90;99.90;;;;;;5114579;28;20061;-67
2023/08/23 02:42:11;;;;;;;32.88;21.65;;;17.00;99.90;;;;;;5114553;28;20549;-67
2023/08/23 02:44:37;;;;;;;34.50;20.35;;;17.00;99.90;;;;;;5114447;28;20028;-66
2023/08/23 02:47:03;;;;;;;32.00;20.25;;;17.00;99.90;;;;;;5112851;28;20027;-68
2023/08/23 02:49:28;;;;;;;31.00;20.35;;;17.00;99.90;;;;;;5114491;28;20081;-67
2023/08/23 02:51:54;;;;;;;29.73;20.13;;;17.00;99.90;;;;;;5114248;28;20028;-67
2023/08/23 02:54:19;;;;;;;34.05;21.70;;;17.00;99.90;;;;;;5113899;28;20024;-67
2023/08/23 02:56:45;;;;;;;37.20;23.20;;;17.00;99.90;;;;;;5113962;28;20030;-67
2023/08/23 02:59:10;;;;;;;38.78;23.70;;;17.00;99.90;;;;;;5114357;28;20060;-65
2023/08/23 03:01:36;;;;;;;31.70;21.60;;;17.00;99.90;;;;;;5113017;28;20046;-65
2023/08/23 03:04:02;;;;;;;37.85;23.27;;;17.00;99.90;;;;;;5112929;28;20028;-67
2023/08/23 03:06:27;;;;;;;33.35;22.88;;;17.00;99.90;;;;;;5114276;28;20099;-66
2023/08/23 03:08:53;;;;;;;31.25;21.33;;;17.10;99.90;;;;;;5112846;28;20111;-66
2023/08/23 03:11:18;;;;;;;32.97;21.77;;;17.10;99.90;;;;;;5113253;28;20016;-67
2023/08/23 03:13:44;;;;;;;32.88;21.85;;;17.10;99.90;;;;;;5114123;28;20039;-65
2023/08/23 03:16:10;;;;;;;37.03;24.83;;;17.10;99.90;;;;;;5114023;28;20030;-66
2023/08/23 03:18:35;;;;;;;35.78;24.30;;;17.10;99.90;;;;;;5113774;28;20039;-67
2023/08/23 03:21:01;;;;;;;37.58;24.33;;;17.10;99.90;;;;;;5114007;28;20089;-66
2023/08/23 03:23:26;;;;;;;37.47;23.40;;;17.20;99.90;;;;;;5113927;28;20019;-65
2023/08/23 03:25:52;;;;;;;33.88;21.75;;;17.20;99.90;;;;;;5113753;28;20379;-67
2023/08/23 03:28:17;;;;;;;37.05;22.95;;;17.20;99.90;;;;;;5113670;28;20524;-66
2023/08/23 03:30:43;;;;;;;38.33;24.30;;;17.20;99.90;;;;;;5103644;28;20032;-66
2023/08/23 03:33:09;;;;;;;35.47;23.52;;;17.20;99.90;;;;;;5093173;28;20043;-65
2023/08/23 03:35:36;;;;;;;39.05;24.60;;;17.20;99.90;;;;;;5101640;28;20062;-67
2023/08/23 03:38:01;;;;;;;37.22;23.27;;;17.20;99.90;;;;;;5113483;28;20424;-67
2023/08/23 03:40:27;;;;;;;34.53;22.20;;;17.20;99.90;;;;;;5113247;28;20067;-66
2023/08/23 03:42:52;;;;;;;34.22;23.75;;;17.20;99.90;;;;;;5113548;28;20024;-66
2023/08/23 03:45:19;;;;;;;39.72;24.17;;;17.20;99.90;;;;;;5113300;28;20387;-67
2023/08/23 03:47:44;;;;;;;34.33;23.20;;;17.10;99.90;;;;;;5112071;28;20032;-66
2023/08/23 03:50:11;;;;;;;35.35;23.10;;;17.10;99.90;;;;;;5113301;28;20024;-66
2023/08/23 03:52:37;;;;;;;38.22;24.35;;;17.20;99.90;;;;;;5111998;28;20123;-67
2023/08/23 03:55:03;;;;;;;39.42;23.05;;;17.10;99.90;;;;;;5113142;28;20130;-66
2023/08/23 03:57:28;;;;;;;35.55;23.13;;;17.20;99.90;;;;;;5113314;28;20027;-66
2023/08/23 03:59:54;;;;;;;39.15;24.17;;;17.20;99.90;;;;;;5112988;28;20030;-67
2023/08/23 04:02:19;;;;;;;35.70;22.88;;;17.20;99.90;;;;;;5113433;28;20023;-66
2023/08/23 04:04:45;;;;;;;36.60;23.55;;;17.20;99.90;;;;;;5113233;28;20027;-67
2023/08/23 04:07:13;;;;;;;36.72;23.08;;;17.20;99.90;;;;;;5113431;28;20777;-66
2023/08/23 04:09:39;;;;;;;36.13;22.90;;;17.20;99.90;;;;;;5113006;28;20015;-65
2023/08/23 04:12:04;;;;;;;37.35;23.60;;;17.10;99.90;;;;;;5107967;28;20044;-66
2023/08/23 04:14:30;;;;;;;39.30;24.45;;;17.10;99.90;;;;;;5092946;28;20031;-65
2023/08/23 04:16:55;;;;;;;40.78;23.50;;;17.10;99.90;;;;;;5092900;28;20080;-67
2023/08/23 04:19:21;;;;;;;37.60;24.17;;;17.10;99.90;;;;;;5091432;28;20042;-67
2023/08/23 04:21:47;;;;;;;42.17;23.42;;;17.00;99.90;;;;;;5091965;28;20455;-67
2023/08/23 04:24:12;;;;;;;43.58;24.20;;;17.00;99.90;;;;;;5092411;28;20411;-65
2023/08/23 04:26:38;;;;;;;40.05;24.10;;;17.00;99.90;;;;;;5092707;28;20077;-66
2023/08/23 04:29:04;;;;;;;37.55;24.65;;;17.00;99.90;;;;;;5091668;28;20036;-65
2023/08/23 04:31:30;;;;;;;38.13;24.92;;;17.00;99.90;;;;;;5092934;28;20039;-66
2023/08/23 04:33:56;;;;;;;37.65;24.45;;;16.90;99.90;;;;;;5092790;28;20025;-66
2023/08/23 04:36:21;;;;;;;35.22;24.13;;;17.00;99.90;;;;;;5092760;28;20352;-66
2023/08/23 04:38:47;;;;;;;39.70;24.38;;;16.90;99.90;;;;;;5092608;28;20039;-66
2023/08/23 04:41:12;;;;;;;38.10;25.45;;;16.90;99.90;;;;;;5092661;28;20089;-66
2023/08/23 04:43:38;;;;;;;35.90;22.70;;;16.90;99.90;;;;;;5092538;28;20028;-66
2023/08/23 04:46:06;;;;;;;39.78;24.08;;;17.00;99.90;;;;;;5092673;28;20024;-66
2023/08/23 04:48:31;;;;;;;34.88;22.80;;;17.00;99.90;;;;;;5092800;28;20028;-67
2023/08/23 04:50:58;;;;;;;39.72;22.15;;;17.10;99.90;;;;;;5092610;28;20047;-68
2023/08/23 04:53:24;;;;;;;32.75;21.27;;;17.10;99.90;;;;;;5092390;28;20040;-66
2023/08/23 04:55:50;;;;;;;34.72;21.90;;;17.20;99.90;;;;;;5092048;28;20177;-66
2023/08/23 04:58:16;;;;;;;35.50;22.00;;;17.20;99.90;;;;;;5092081;28;20110;-66
2023/08/23 05:00:44;;;;;;;34.72;20.75;;;17.20;99.90;;;;;;5092500;28;20571;-66
2023/08/23 05:03:10;;;;;;;33.75;21.40;;;17.20;99.90;;;;;;5092278;28;20023;-68
2023/08/23 05:05:35;;;;;;;34.33;21.23;;;17.20;99.90;;;;;;5092415;28;20115;-66
2023/08/23 05:08:01;;;;;;;29.67;18.92;;;17.30;99.90;;;;;;5092366;28;20028;-66
2023/08/23 05:10:27;;;;;;;31.98;18.75;;;17.30;99.90;;;;;;5092176;28;20032;-66
2023/08/23 05:12:55;;;;;;;31.90;18.90;;;17.40;99.90;;;;;;5090559;28;20076;-66
2023/08/23 05:15:22;;;;;;;31.42;18.33;;;17.40;99.90;;;;;;5092307;28;20078;-66
2023/08/23 05:17:47;;;;;;;30.88;17.75;;;17.50;99.90;;;;;;5092385;28;20039;-66
2023/08/23 05:20:14;;;;;;;27.77;17.77;;;17.60;99.90;;;;;;5091934;28;20399;-65
2023/08/23 05:22:40;;;;;;;32.40;18.00;;;17.60;99.90;;;;;;5091763;28;20032;-66
2023/08/23 05:25:06;;;;;;;32.10;17.05;;;17.60;99.90;;;;;;5090610;28;20021;-66
2023/08/23 05:27:31;;;;;;;28.50;16.90;;;17.70;99.90;;;;;;5091738;28;20032;-66
2023/08/23 05:29:59;;;;;;;30.73;16.75;;;17.70;99.90;;;;;;5095189;28;20031;-66
2023/08/23 05:32:25;;;;;;;29.77;16.77;;;17.80;99.90;;;;;;5112165;28;20099;-66
2023/08/23 05:34:50;;;;;;;26.17;16.63;;;17.80;99.90;;;;;;5115643;28;20028;-66
2023/08/23 05:37:16;;;;;;;33.22;18.33;;;17.80;99.90;;;;;;5115361;28;20388;-66
2023/08/23 05:39:41;;;;;;;27.88;16.95;;;17.90;99.90;;;;;;5115838;28;20024;-67
2023/08/23 05:42:07;;;;;;;28.60;17.58;;;17.90;99.90;;;;;;5100089;28;20073;-67
2023/08/23 05:44:34;;;;;;;27.38;17.45;;;18.00;99.90;;;;;;5095320;28;20434;-64
2023/08/23 05:46:59;;;;;;;26.95;17.13;;;18.00;99.90;;;;;;5105036;28;20024;-65
2023/08/23 05:49:25;;;;;;;26.48;15.60;;;18.10;99.90;;;;;;5115892;28;20356;-66
2023/08/23 05:51:52;;;;;;;24.77;15.48;;;18.20;99.90;;;;;;5115027;28;20140;-65
2023/08/23 05:54:18;;;;;;;24.17;15.50;;;18.30;99.90;;;;;;5115540;28;20037;-65
2023/08/23 05:56:43;;;;;;;25.35;14.85;;;18.40;99.90;;;;;;5115268;28;20028;-67
2023/08/23 05:59:09;;;;;;;29.52;15.50;;;18.50;99.90;;;;;;5115430;28;20023;-67
2023/08/23 06:01:34;;;;;;;25.70;14.63;;;18.60;99.90;;;;;;5115296;28;20031;-68
2023/08/23 06:04:00;;;;;;;24.60;14.38;;;18.60;99.90;;;;;;5114562;28;20081;-66
2023/08/23 06:06:25;;;;;;;25.70;14.55;;;18.60;99.90;;;;;;5114433;28;20031;-65
2023/08/23 06:08:51;;;;;;;26.75;14.93;;;18.70;99.90;;;;;;5113302;28;20073;-66
2023/08/23 06:11:18;;;;;;;24.27;14.18;;;18.70;99.90;;;;;;5103597;28;20028;-67
2023/08/23 06:13:43;;;;;;;21.13;13.63;;;18.70;99.90;;;;;;5103458;28;20108;-65
2023/08/23 06:16:09;;;;;;;24.33;13.73;;;18.90;99.90;;;;;;5100019;28;20111;-65
2023/08/23 06:18:35;;;;;;;21.60;12.43;;;19.10;99.90;;;;;;5103607;28;20039;-67
2023/08/23 06:21:00;;;;;;;24.83;13.27;;;19.20;99.90;;;;;;5106001;28;20023;-67
2023/08/23 06:23:26;;;;;;;21.08;11.77;;;19.40;99.90;;;;;;5099946;28;20055;-66
2023/08/23 06:26:01;;;;;;;24.10;12.10;;;19.60;99.90;;;;;;5097602;28;20448;-66
2023/08/23 06:28:27;;;;;;;20.92;12.02;;;19.80;99.90;;;;;;5098907;28;20024;-67
2023/08/23 06:30:55;;;;;;;20.77;10.98;;;20.10;99.90;;;;;;5098985;28;20475;-66
2023/08/23 06:33:21;;;;;;;21.80;11.27;;;20.30;99.90;;;;;;5097551;28;20027;-67
2023/08/23 06:35:46;;;;;;;20.58;10.75;;;20.60;99.90;;;;;;5115082;28;20039;-66
2023/08/23 06:38:15;;;;;;;21.73;11.00;;;20.80;99.90;;;;;;5110633;28;20039;-67
2023/08/23 06:40:42;;;;;;;21.30;10.57;;;20.90;99.90;;;;;;5093145;28;20057;-66
2023/08/23 06:43:08;;;;;;;19.58;9.52;;;21.10;99.90;;;;;;5093276;28;20066;-66
2023/08/23 06:45:33;;;;;;;21.80;9.85;;;21.30;99.90;;;;;;5093350;28;20032;-67
2023/08/23 06:47:59;;;;;;;19.42;9.30;;;21.50;99.90;;;;;;5092665;28;20593;-66
2023/08/23 06:50:25;;;;;;;20.58;9.27;;;21.70;99.90;;;;;;5092997;28;20031;-65
2023/08/23 06:52:50;;;;;;;21.40;9.40;;;21.80;99.90;;;;;;5094216;28;20044;-66
2023/08/23 06:55:16;;;;;;;20.58;8.77;;;22.10;99.90;;;;;;5093962;28;20051;-66
2023/08/23 06:57:41;;;;;;;19.90;8.88;;;22.40;99.90;;;;;;5094342;28;20059;-65
2023/08/23 07:00:07;;;;;;;17.95;8.82;;;22.70;99.90;;;;;;5094280;28;20028;-66
2023/08/23 07:02:33;;;;;;;21.90;9.00;;;22.90;99.90;;;;;;5093818;28;20097;-66
2023/08/23 07:04:58;;;;;;;17.42;8.60;;;23.20;99.90;;;;;;5092913;28;20074;-67
2023/08/23 07:07:24;;;;;;;21.63;8.55;;;23.70;99.90;;;;;;5094235;28;20074;-66
2023/08/23 07:09:50;;;;;;;15.88;8.27;;;24.20;99.90;;;;;;5094405;28;20425;-67
2023/08/23 07:12:16;;;;;;;20.45;8.13;;;24.70;99.90;;;;;;5094021;28;20038;-67
2023/08/23 07:14:41;;;;;;;16.67;6.93;;;25.10;99.90;;;;;;5104351;28;20114;-67
2023/08/23 07:17:08;;;;;;;14.38;6.25;;;25.40;99.90;;;;;;5113247;28;20031;-67
2023/08/23 07:19:35;;;;;;;16.45;7.18;;;25.60;99.90;;;;;;5114339;28;20128;-67
2023/08/23 07:22:01;;;;;;;15.65;6.75;;;25.50;99.90;;;;;;5109335;28;20031;-67
2023/08/23 07:24:27;;;;;;;16.65;7.05;;;25.50;99.90;;;;;;5102621;28;20577;-66
2023/08/23 07:26:55;;;;;;;15.98;6.18;;;25.50;99.90;;;;;;5104450;28;20040;-65
2023/08/23 07:29:20;;;;;;;17.40;6.82;;;25.40;99.90;;;;;;5103170;28;20034;-65
2023/08/23 07:31:46;;;;;;;15.48;7.03;;;25.30;99.90;;;;;;5102409;28;20035;-66
2023/08/23 07:34:11;;;;;;;20.00;8.00;;;25.20;99.90;;;;;;5104662;28;20028;-65
2023/08/23 07:36:37;;;;;;;17.17;6.80;;;25.20;99.90;;;;;;5102746;28;20020;-66
2023/08/23 07:39:03;;;;;;;18.63;7.60;;;25.40;99.90;;;;;;5102831;28;20027;-66
2023/08/23 07:41:29;;;;;;;17.73;7.28;;;25.50;99.90;;;;;;5103479;28;20020;-66
2023/08/23 07:43:54;;;;;;;15.95;7.10;;;25.70;99.90;;;;;;5102002;28;20064;-66
2023/08/23 07:46:20;;;;;;;15.18;6.63;;;25.70;99.90;;;;;;5101894;28;20030;-66
2023/08/23 07:48:45;;;;;;;16.95;6.93;;;25.70;99.90;;;;;;5103206;28;20020;-66
2023/08/23 07:51:11;;;;;;;13.73;5.90;;;25.90;99.90;;;;;;5101888;28;20016;-66
2023/08/23 07:53:37;;;;;;;12.02;5.38;;;26.30;99.90;;;;;;5103440;28;20042;-66
2023/08/23 07:56:03;;;;;;;16.85;7.18;;;26.50;99.90;;;;;;5102510;28;20549;-67
2023/08/23 07:58:29;;;;;;;19.23;7.00;;;26.50;99.90;;;;;;5101735;28;20047;-67
2023/08/23 08:00:55;;;;;;;13.70;5.28;;;26.80;99.90;;;;;;5101985;28;20028;-67
2023/08/23 08:03:20;;;;;;;15.23;5.60;;;27.20;99.90;;;;;;5102812;28;20383;-68
2023/08/23 08:05:46;;;;;;;15.75;6.05;;;27.70;99.90;;;;;;5112007;28;20077;-67
2023/08/23 08:08:12;;;;;;;9.63;3.80;;;28.40;99.90;;;;;;5113433;28;20030;-67
2023/08/23 08:10:38;;;;;;;15.85;4.43;;;28.90;99.90;;;;;;5113368;28;20032;-68
2023/08/23 08:13:05;;;;;;;9.60;3.83;;;29.20;99.90;;;;;;5112950;28;20046;-66
2023/08/23 08:15:31;;;;;;;10.88;4.45;;;29.10;99.90;;;;;;5112842;28;20024;-67
2023/08/23 08:17:57;;;;;;;15.40;4.10;;;28.90;99.90;;;;;;5105021;28;20436;-67
2023/08/23 08:20:26;;;;;;;14.30;4.38;;;29.30;99.90;;;;;;5112893;28;20047;-67
2023/08/23 08:22:52;;;;;;;7.15;3.08;;;29.50;99.90;;;;;;5110975;28;20019;-66
2023/08/23 08:25:18;;;;;;;14.75;5.05;;;29.40;99.90;;;;;;5112738;28;20019;-67
2023/08/23 08:27:43;;;;;;;10.02;3.10;;;29.00;99.90;;;;;;5110979;28;20422;-67
2023/08/23 08:30:09;;;;;;;9.45;4.13;;;28.90;99.90;;;;;;5112455;28;20032;-66
2023/08/23 08:32:35;;;;;;;11.88;3.17;;;29.60;99.90;;;;;;5104188;28;20084;-66
2023/08/23 08:35:00;;;;;;;10.23;3.10;;;30.90;98.70;;;;;;5111038;28;20471;-67
2023/08/23 08:37:26;;;;;;;10.18;2.90;;;31.10;97.70;;;;;;5111945;28;20042;-66
2023/08/23 08:39:52;;;;;;;10.55;2.80;;;30.70;97.30;;;;;;5105527;28;20020;-67
2023/08/23 08:42:17;;;;;;;9.80;2.88;;;30.20;98.60;;;;;;5102823;28;20032;-67
2023/08/23 08:44:44;;;;;;;15.25;3.80;;;30.50;98.30;;;;;;5098050;28;20052;-68
2023/08/23 08:47:10;;;;;;;9.52;3.25;;;31.30;97.50;;;;;;5103587;28;20024;-67
2023/08/23 08:49:36;;;;;;;11.52;3.13;;;32.30;96.60;;;;;;5096874;28;20072;-67
2023/08/23 08:52:04;;;;;;;12.80;3.33;;;32.40;96.20;;;;;;5110097;28;20035;-67
2023/08/23 08:54:34;;;;;;;7.57;2.50;;;31.70;96.50;;;;;;5112268;28;20475;-68
2023/08/23 08:57:01;;;;;;;7.70;2.78;;;31.90;95.80;;;;;;5101377;28;20074;-67
2023/08/23 08:59:27;;;;;;;12.98;3.65;;;32.50;95.40;;;;;;5096955;28;20032;-67
2023/08/23 09:01:56;;;;;;;9.90;3.13;;;33.10;95.10;;;;;;5104512;28;20098;-67
2023/08/23 09:04:22;;;;;;;8.50;2.78;;;33.90;94.40;;;;;;5106433;28;20114;-68
2023/08/23 09:06:48;;;;;;;13.70;3.58;;;34.80;93.30;;;;;;5106651;28;20091;-67
2023/08/23 09:09:14;;;;;;;11.27;3.90;;;35.80;92.60;;;;;;5108776;28;20161;-68
2023/08/23 09:11:40;;;;;;;9.32;3.00;;;36.40;91.30;;;;;;5106912;28;20032;-67
2023/08/23 09:14:25;;;;;;;9.85;3.92;;;36.20;91.10;;;;;;5106982;28;20039;-67
2023/08/23 09:16:51;;;;;;;10.43;3.10;;;36.50;90.90;;;;;;5105586;28;20020;-67
2023/08/23 09:19:16;;;;;;;7.95;3.35;;;37.40;90.00;;;;;;5107359;28;20445;-67
2023/08/23 09:21:43;;;;;;;11.60;3.63;;;38.30;88.70;;;;;;5104503;28;20397;-68
2023/08/23 09:24:09;;;;;;;9.98;2.90;;;38.90;87.40;;;;;;5107844;28;20012;-69
2023/08/23 09:26:35;;;;;;;12.20;3.50;;;39.70;85.20;;;;;;5110362;28;20106;-68
2023/08/23 09:29:04;;;;;;;8.18;2.90;;;40.30;83.50;;;;;;5106623;28;20206;-68
2023/08/23 09:31:30;;;;;;;6.60;3.05;;;40.60;81.50;;;;;;5103338;28;20067;-67
2023/08/23 09:33:55;;;;;;;9.90;2.92;;;40.80;81.10;;;;;;5088673;28;20055;-68
2023/08/23 09:36:29;;;;;;;9.52;2.75;;;40.80;80.90;;;;;;5104506;28;20031;-67
2023/08/23 09:38:56;;;;;;;8.18;3.20;;;40.80;81.10;;;;;;5111059;28;20027;-67
2023/08/23 09:41:25;;;;;;;7.00;2.33;;;40.80;80.50;;;;;;5110742;28;20039;-68
2023/08/23 09:43:56;;;;;;;7.22;2.47;;;40.80;79.10;;;;;;5108712;28;20030;-67
2023/08/23 09:46:27;;;;;;;6.82;2.80;;;40.30;79.50;;;;;;5109423;28;20468;-68
2023/08/23 09:48:54;;;;;;;6.93;2.00;;;40.30;78.70;;;;;;5104354;28;20030;-68
2023/08/23 09:51:24;;;;;;;8.02;2.97;;;40.60;77.60;;;;;;5103492;28;20573;-67
2023/08/23 09:53:54;;;;;;;4.68;1.98;;;40.90;77.00;;;;;;5106856;28;20028;-68
2023/08/23 09:56:21;;;;;;;4.60;1.77;;;41.20;77.10;;;;;;5106014;28;20059;-68
2023/08/23 09:58:47;;;;;;;7.03;2.42;;;41.30;76.60;;;;;;5105803;28;20256;-68
2023/08/23 10:01:15;;;;;;;10.13;2.67;;;41.50;76.20;;;;;;5104648;28;20028;-67
2023/08/23 10:03:41;;;;;;;6.38;2.50;;;41.30;75.70;;;;;;5105123;28;20032;-68
2023/08/23 10:06:08;;;;;;;5.25;1.80;;;41.20;75.30;;;;;;5106347;28;20131;-68
2023/08/23 10:08:38;;;;;;;6.75;2.10;;;41.20;75.10;;;;;;5105347;28;20054;-68
2023/08/23 10:11:03;;;;;;;7.50;1.98;;;41.30;75.70;;;;;;5105921;28;20383;-68
2023/08/23 10:13:33;;;;;;;7.47;1.95;;;41.70;75.50;;;;;;5102889;28;20475;-67
2023/08/23 10:16:00;;;;;;;8.32;2.10;;;41.70;74.50;;;;;;5104048;28;20085;-68
2023/08/23 10:18:29;;;;;;;7.72;2.22;;;41.50;75.10;;;;;;5114721;28;20108;-68
2023/08/23 10:20:55;;;;;;;5.88;1.63;;;41.60;74.90;;;;;;5100905;28;20069;-68
2023/08/23 10:23:22;;;;;;;7.57;2.28;;;41.80;73.60;;;;;;5112282;28;20039;-67
2023/08/23 10:25:48;;;;;;;8.88;1.90;;;42.10;72.70;;;;;;5099237;28;20049;-67
2023/08/23 10:28:16;;;;;;;4.28;1.65;;;42.40;72.10;;;;;;5106583;28;20032;-67
2023/08/23 10:30:46;;;;;;;4.10;1.48;;;42.50;72.10;;;;;;5106981;28;20092;-67
2023/08/23 10:33:16;;;;;;;3.63;1.50;;;42.00;71.10;;;;;;5098223;28;20044;-69
2023/08/23 10:35:46;;;;;;;8.30;1.88;;;41.70;70.80;;;;;;5113415;28;20058;-67
2023/08/23 10:38:12;;;;;;;4.97;1.85;;;41.70;70.50;;;;;;5107032;28;20031;-66
2023/08/23 10:40:39;;;;;;;4.88;1.50;;;41.50;70.80;;;;;;5106406;28;20027;-69
2023/08/23 10:43:14;;;;;;;5.72;1.63;;;41.60;70.50;;;;;;5099043;28;20067;-68
2023/08/23 10:45:49;;;;;;;2.55;1.52;;;41.60;70.10;;;;;;5111001;28;20051;-68
2023/08/23 10:48:15;;;;;;;6.18;1.77;;;41.40;69.90;;;;;;5094433;28;20044;-68
2023/08/23 10:50:41;;;;;;;4.97;1.80;;;41.10;70.30;;;;;;5105567;28;20024;-69
2023/08/23 10:53:07;;;;;;;6.70;2.00;;;41.00;70.50;;;;;;5098462;28;20036;-69
2023/08/23 10:55:32;;;;;;;7.28;1.60;;;40.90;70.70;;;;;;5110498;28;20054;-68
2023/08/23 10:57:58;;;;;;;7.32;1.80;;;41.00;70.40;;;;;;5097391;28;20032;-69
2023/08/23 11:00:24;;;;;;;3.03;1.55;;;41.00;70.90;;;;;;5103336;28;20024;-70
2023/08/23 11:02:50;;;;;;;3.60;1.60;;;41.10;71.10;;;;;;5107053;28;20453;-68
2023/08/23 11:05:16;;;;;;;6.68;1.67;;;41.20;71.00;;;;;;5096456;28;20108;-69
2023/08/23 11:07:43;;;;;;;7.05;1.90;;;41.50;71.40;;;;;;5110254;28;20099;-68
2023/08/23 11:10:09;;;;;;;7.03;2.00;;;41.60;71.60;;;;;;5095918;28;20027;-68
2023/08/23 11:12:36;;;;;;;6.95;1.77;;;41.80;71.40;;;;;;5112567;28;20039;-68
2023/08/23 11:15:01;;;;;;;8.15;1.85;;;41.70;71.00;;;;;;5098999;28;20028;-69
2023/08/23 11:17:28;;;;;;;6.10;2.00;;;41.70;71.10;;;;;;5109584;28;20538;-68
2023/08/23 11:19:53;;;;;;;8.25;2.15;;;41.60;71.60;;;;;;5098738;28;20036;-70
2023/08/23 11:22:19;;;;;;;5.85;2.10;;;41.30;71.20;;;;;;5104761;28;20551;-67
2023/08/23 11:24:46;;;;;;;4.90;1.80;;;41.10;71.20;;;;;;5106522;28;20371;-67
2023/08/23 11:27:12;;;;;;;5.53;1.88;;;40.90;71.80;;;;;;5096289;28;20499;-70
2023/08/23 11:29:38;;;;;;;7.82;2.35;;;41.00;71.60;;;;;;5110047;28;20107;-69
2023/08/23 11:32:05;;;;;;;8.50;2.03;;;41.00;71.20;;;;;;5103355;28;20483;-68
2023/08/23 11:34:31;;;;;;;12.90;2.90;;;40.80;71.50;;;;;;5113533;28;20066;-68
2023/08/23 11:36:57;;;;;;;8.20;1.80;;;40.80;72.20;;;;;;5100236;28;20059;-68
2023/08/23 11:39:22;;;;;;;9.00;2.30;;;40.70;72.00;;;;;;5112130;28;20774;-70
2023/08/23 11:41:49;;;;;;;6.95;2.25;;;40.70;72.60;;;;;;5096585;28;20031;-70
2023/08/23 11:44:15;;;;;;;8.02;2.28;;;40.60;72.30;;;;;;5105144;28;20475;-68
2023/08/23 11:46:41;;;;;;;8.18;2.20;;;40.70;72.60;;;;;;5104171;28;20047;-68
2023/08/23 11:49:09;;;;;;;7.07;2.10;;;40.80;72.40;;;;;;5098349;28;20028;-68
2023/08/23 11:51:46;;;;;;;5.57;1.85;;;40.90;72.10;;;;;;5110512;28;21115;-68
2023/08/23 11:54:13;;;;;;;8.65;1.85;;;41.10;71.80;;;;;;5099439;28;20504;-68
2023/08/23 11:56:40;;;;;;;5.45;1.92;;;41.10;72.30;;;;;;5101216;28;20514;-69
2023/08/23 11:59:06;;;;;;;7.78;1.95;;;41.20;72.10;;;;;;5107287;28;20028;-70
2023/08/23 12:01:34;;;;;;;9.20;2.03;;;41.30;72.00;;;;;;5096475;28;20055;-68
2023/08/23 12:04:00;;;;;;;5.72;2.33;;;41.40;72.50;;;;;;5107087;28;20463;-68
2023/08/23 12:06:26;;;;;;;8.95;2.13;;;41.20;72.30;;;;;;5103082;28;20019;-68
2023/08/23 12:08:53;;;;;;;8.35;2.05;;;41.10;72.30;;;;;;5099169;28;20020;-70
2023/08/23 12:11:19;;;;;;;4.35;2.00;;;40.70;72.80;;;;;;5108069;28;20089;-68
2023/08/23 12:13:44;;;;;;;4.32;1.90;;;40.50;73.00;;;;;;5096758;28;20031;-68
2023/08/23 12:16:10;;;;;;;5.95;1.65;;;40.40;72.80;;;;;;5105306;28;20028;-68
2023/08/23 12:18:36;;;;;;;6.50;1.70;;;40.30;72.50;;;;;;5103093;28;20061;-68
2023/08/23 12:21:02;;;;;;;6.22;1.80;;;40.00;72.90;;;;;;5097162;28;20472;-69
2023/08/23 12:23:28;;;;;;;4.43;1.35;;;39.90;72.60;;;;;;5109142;28;20031;-68
2023/08/23 12:25:53;;;;;;;4.20;1.67;;;40.00;73.50;;;;;;5094839;28;20028;-68
2023/08/23 12:28:19;;;;;;;3.28;1.33;;;39.90;73.80;;;;;;5100345;28;20111;-68
2023/08/23 12:30:45;;;;;;;3.90;1.40;;;39.90;73.10;;;;;;5112515;28;20379;-67
2023/08/23 12:33:10;;;;;;;6.85;1.52;;;39.80;73.20;;;;;;5112875;28;20044;-69